Time;durP1;ratioP1;P1;durP2;ratioP2;P2;SDS_P1;SDS_P2;PMS_P1;PMS_P2;Temp;Humidity;BMP_temperature;BMP_pressure;BME280_temperature;BME280_humidity;BME280_pressure;Samples;Min_cycle;Max_cycle;Signal;HPM_P1;HPM_P2
2023/01/15 00:00:14;;;;;;;84.83;30.13;;;4.50;99.90;;;;;;5096018;28;20229;-83
2023/01/15 00:02:40;;;;;;;95.78;33.05;;;4.50;99.90;;;;;;5094098;28;20196;-83
2023/01/15 00:05:06;;;;;;;92.97;34.10;;;4.60;99.90;;;;;;5095851;28;20219;-85
2023/01/15 00:07:32;;;;;;;119.05;34.15;;;4.70;99.90;;;;;;5095374;28;20203;-85
2023/01/15 00:09:58;;;;;;;114.27;38.77;;;4.80;99.90;;;;;;5095717;28;20519;-85
2023/01/15 00:12:23;;;;;;;118.00;34.33;;;4.90;99.90;;;;;;5093558;28;20196;-85
2023/01/15 00:14:49;;;;;;;89.43;35.00;;;4.90;99.90;;;;;;5095404;28;20195;-85
2023/01/15 00:17:15;;;;;;;101.00;33.97;;;4.90;99.90;;;;;;5097148;28;20196;-84
2023/01/15 00:19:42;;;;;;;122.80;36.33;;;5.00;99.90;;;;;;5095596;28;20181;-85
2023/01/15 00:22:08;;;;;;;114.53;33.13;;;5.00;99.90;;;;;;5095225;28;20171;-85
2023/01/15 00:30:02;;;;;;;122.10;34.35;;;5.10;99.90;;;;;;5095610;28;20245;-85
2023/01/15 00:32:28;;;;;;;126.68;36.00;;;5.10;99.90;;;;;;5093742;28;20196;-83
2023/01/15 00:34:54;;;;;;;132.77;34.93;;;5.10;99.90;;;;;;5095480;28;20172;-81
2023/01/15 00:37:20;;;;;;;101.70;30.60;;;5.00;99.90;;;;;;5094985;28;20429;-83
2023/01/15 00:39:46;;;;;;;104.63;33.40;;;5.00;99.90;;;;;;5093818;28;20224;-83
2023/01/15 00:42:12;;;;;;;103.20;35.00;;;5.00;99.90;;;;;;5093612;28;20433;-83
2023/01/15 00:44:39;;;;;;;86.00;32.40;;;5.00;99.90;;;;;;5095044;28;20439;-82
2023/01/15 00:47:05;;;;;;;103.35;34.58;;;5.10;99.90;;;;;;5094906;28;20538;-82
2023/01/15 00:49:31;;;;;;;96.70;31.50;;;5.10;99.90;;;;;;5095009;28;20641;-81
2023/01/15 00:51:57;;;;;;;87.33;31.23;;;5.10;99.90;;;;;;5093448;28;20180;-84
2023/01/15 00:54:22;;;;;;;144.77;35.13;;;5.10;99.90;;;;;;5093341;28;20176;-84
2023/01/15 00:56:48;;;;;;;138.00;32.97;;;5.10;99.90;;;;;;5053067;28;1179973;-81
2023/01/15 00:59:14;;;;;;;107.07;30.60;;;5.10;99.90;;;;;;5095820;28;20424;-84
2023/01/15 01:01:40;;;;;;;109.67;34.40;;;5.10;99.90;;;;;;5094537;28;20184;-83
2023/01/15 01:04:06;;;;;;;117.70;36.50;;;5.10;99.90;;;;;;5095303;28;20744;-83
2023/01/15 01:06:31;;;;;;;126.07;37.97;;;5.00;99.90;;;;;;5094256;28;20482;-82
2023/01/15 01:08:57;;;;;;;164.60;38.70;;;5.10;99.90;;;;;;5094009;28;20231;-82
2023/01/15 01:11:25;;;;;;;131.60;38.90;;;5.00;99.90;;;;;;5095466;28;20221;-82
2023/01/15 01:13:52;;;;;;;179.75;41.65;;;5.00;99.90;;;;;;5093989;28;20192;-82
2023/01/15 01:16:32;;;;;;;119.43;38.10;;;5.10;99.90;;;;;;5095371;28;20241;-84
2023/01/15 01:18:59;;;;;;;155.65;42.92;;;5.20;99.90;;;;;;5093928;28;20315;-84
2023/01/15 01:21:26;;;;;;;134.82;39.65;;;5.20;99.90;;;;;;5093916;28;20185;-84
2023/01/15 01:23:52;;;;;;;161.30;42.75;;;5.30;99.90;;;;;;5094611;28;20209;-84
2023/01/15 01:26:18;;;;;;;203.73;46.35;;;5.30;99.90;;;;;;5093475;28;20187;-82
2023/01/15 01:28:51;;;;;;;171.03;43.17;;;5.30;99.90;;;;;;5093644;28;20196;-84
2023/01/15 01:31:18;;;;;;;182.85;45.00;;;5.30;99.90;;;;;;5094973;28;20516;-85
2023/01/15 01:33:43;;;;;;;155.20;43.03;;;5.20;99.90;;;;;;5095001;28;20664;-82
2023/01/15 01:36:09;;;;;;;191.53;43.43;;;5.10;99.90;;;;;;5093761;28;20188;-84
2023/01/15 01:38:35;;;;;;;163.00;43.63;;;5.20;99.90;;;;;;5095614;28;20193;-87
2023/01/15 01:41:01;;;;;;;208.73;48.83;;;5.20;99.90;;;;;;5095014;28;20553;-82
2023/01/15 01:43:29;;;;;;;165.53;47.40;;;5.30;99.90;;;;;;5094733;28;20219;-82
2023/01/15 01:45:55;;;;;;;156.77;44.63;;;5.30;99.90;;;;;;5094684;28;20474;-82
2023/01/15 01:48:27;;;;;;;171.38;45.53;;;5.40;99.90;;;;;;5094936;28;20196;-83
2023/01/15 01:50:56;;;;;;;156.75;46.08;;;5.40;99.90;;;;;;5093409;28;20177;-82
2023/01/15 01:53:26;;;;;;;136.15;43.38;;;5.40;99.90;;;;;;5094574;28;20192;-83
2023/01/15 01:55:53;;;;;;;159.02;46.65;;;5.40;99.90;;;;;;5093064;28;20228;-81
2023/01/15 01:58:20;;;;;;;166.90;43.80;;;5.40;99.90;;;;;;5094297;28;20264;-84
2023/01/15 02:00:49;;;;;;;155.05;49.45;;;5.40;99.90;;;;;;5093272;28;20241;-81
2023/01/15 02:03:19;;;;;;;135.70;42.10;;;5.40;99.90;;;;;;5094677;28;20290;-84
2023/01/15 02:05:54;;;;;;;194.73;46.20;;;5.40;99.90;;;;;;5093763;28;20223;-82
2023/01/15 02:08:21;;;;;;;126.97;43.75;;;5.40;99.90;;;;;;5093002;28;20691;-82
2023/01/15 02:10:51;;;;;;;185.85;46.65;;;5.30;99.90;;;;;;5094296;28;20176;-84
2023/01/15 02:13:38;;;;;;;162.10;47.28;;;5.30;99.90;;;;;;5093239;28;20546;-82
2023/01/15 02:16:06;;;;;;;205.15;47.30;;;5.30;99.90;;;;;;5094392;28;20538;-84
2023/01/15 02:18:57;;;;;;;183.82;50.40;;;5.30;99.90;;;;;;5092779;28;20192;-82
2023/01/15 02:21:34;;;;;;;143.13;43.58;;;5.40;99.90;;;;;;5094298;28;20175;-82
2023/01/15 02:24:35;;;;;;;169.18;48.95;;;5.30;99.90;;;;;;5092744;28;20328;-84
2023/01/15 02:27:19;;;;;;;155.65;47.42;;;5.30;99.90;;;;;;5056626;28;20197;-85
2023/01/15 02:29:59;;;;;;;187.05;49.15;;;5.40;99.90;;;;;;5094318;28;20168;-83
2023/01/15 02:32:49;;;;;;;143.48;41.90;;;5.50;99.90;;;;;;5093953;28;20200;-82
2023/01/15 02:35:21;;;;;;;188.95;50.58;;;5.50;99.90;;;;;;5094425;28;20664;-82
2023/01/15 02:37:54;;;;;;;182.90;49.53;;;5.50;99.90;;;;;;5093909;28;20197;-84
2023/01/15 02:40:23;;;;;;;183.88;52.45;;;5.60;99.90;;;;;;5094497;28;20613;-85
2023/01/15 02:42:49;;;;;;;171.98;45.50;;;5.60;99.90;;;;;;5093806;28;20353;-83
2023/01/15 02:45:25;;;;;;;215.43;52.85;;;5.60;99.90;;;;;;5092676;28;20207;-84
2023/01/15 02:47:54;;;;;;;197.23;49.67;;;5.50;99.90;;;;;;5093485;28;20212;-82
2023/01/15 02:50:28;;;;;;;249.18;55.25;;;5.60;99.90;;;;;;5096771;28;20174;-85
2023/01/15 02:53:00;;;;;;;197.80;50.90;;;5.50;99.90;;;;;;5093944;28;20200;-84
2023/01/15 02:55:31;;;;;;;209.57;50.00;;;5.50;99.90;;;;;;5093898;28;20239;-82
2023/01/15 02:58:03;;;;;;;210.55;52.65;;;5.50;99.90;;;;;;5093808;28;20266;-83
2023/01/15 03:00:33;;;;;;;258.38;51.53;;;5.50;99.90;;;;;;5092606;28;20645;-83
2023/01/15 03:03:16;;;;;;;190.65;50.97;;;5.50;99.90;;;;;;5093618;28;20665;-84
2023/01/15 03:05:51;;;;;;;238.20;55.45;;;5.60;99.90;;;;;;5092282;28;20303;-81
2023/01/15 03:08:17;;;;;;;236.75;54.40;;;5.50;99.90;;;;;;5092324;28;20195;-82
2023/01/15 03:11:04;;;;;;;295.13;59.33;;;5.50;99.90;;;;;;5092354;28;20172;-84
2023/01/15 03:14:07;;;;;;;225.80;52.28;;;5.50;99.90;;;;;;5093604;28;20265;-82
2023/01/15 03:16:38;;;;;;;257.40;55.92;;;5.50;99.90;;;;;;5092294;28;20172;-82
2023/01/15 03:19:42;;;;;;;227.65;52.45;;;5.50;99.90;;;;;;5092233;28;20279;-84
2023/01/15 03:22:24;;;;;;;203.13;51.33;;;5.50;99.90;;;;;;5093648;28;20542;-84
2023/01/15 03:24:59;;;;;;;201.10;53.40;;;5.60;99.90;;;;;;5093684;28;20240;-82
2023/01/15 03:27:26;;;;;;;200.65;48.58;;;5.60;99.90;;;;;;5093419;28;20207;-85
2023/01/15 03:29:59;;;;;;;163.73;48.47;;;5.50;99.90;;;;;;5093896;28;20180;-82
2023/01/15 03:32:25;;;;;;;165.23;46.08;;;5.50;99.90;;;;;;5093469;28;20249;-83
2023/01/15 03:34:54;;;;;;;191.90;46.17;;;5.50;99.90;;;;;;5093272;28;20169;-82
2023/01/15 03:37:23;;;;;;;156.57;44.45;;;5.50;99.90;;;;;;5093280;28;20203;-84
2023/01/15 03:39:50;;;;;;;175.55;45.13;;;5.40;99.90;;;;;;5093862;28;20200;-83
2023/01/15 03:42:27;;;;;;;169.98;46.08;;;5.40;99.90;;;;;;5091929;28;20196;-84
2023/01/15 03:45:25;;;;;;;177.32;45.70;;;5.40;99.90;;;;;;5093705;28;20691;-82
2023/01/15 03:47:58;;;;;;;152.15;42.65;;;5.40;99.90;;;;;;5093035;28;20200;-83
2023/01/15 03:50:42;;;;;;;148.23;44.42;;;5.40;99.90;;;;;;5097538;28;20168;-84
2023/01/15 03:53:17;;;;;;;167.13;42.88;;;5.30;99.90;;;;;;5097050;28;20189;-83
2023/01/15 03:55:52;;;;;;;179.88;44.88;;;5.30;99.90;;;;;;5095623;28;20239;-82
2023/01/15 03:58:29;;;;;;;152.00;42.55;;;5.40;99.90;;;;;;5097579;28;20224;-84
2023/01/15 04:00:59;;;;;;;208.40;44.15;;;5.30;99.90;;;;;;5096955;28;20270;-84
2023/01/15 04:03:27;;;;;;;197.32;45.35;;;5.40;99.90;;;;;;5096609;28;20257;-83
2023/01/15 04:05:56;;;;;;;173.38;49.97;;;5.40;99.90;;;;;;5095382;28;20271;-81
2023/01/15 04:08:23;;;;;;;196.82;51.45;;;5.40;99.90;;;;;;5096613;28;20695;-82
2023/01/15 04:10:57;;;;;;;219.88;44.60;;;5.40;99.90;;;;;;5096633;28;20198;-83
2023/01/15 04:13:23;;;;;;;212.15;46.53;;;5.40;99.90;;;;;;5095101;28;20199;-83
2023/01/15 04:15:49;;;;;;;190.23;45.40;;;5.40;99.90;;;;;;5096552;28;20251;-83
2023/01/15 04:18:15;;;;;;;166.10;44.47;;;5.40;99.90;;;;;;5095012;28;20415;-84
2023/01/15 04:20:41;;;;;;;170.77;44.67;;;5.40;99.90;;;;;;5096417;28;20168;-82
2023/01/15 04:23:06;;;;;;;183.80;45.80;;;5.40;99.90;;;;;;5096347;28;20188;-83
2023/01/15 04:25:32;;;;;;;180.43;45.60;;;5.40;99.90;;;;;;5096095;28;20742;-83
2023/01/15 04:27:57;;;;;;;164.43;41.60;;;5.40;99.90;;;;;;5097315;28;20547;-83
2023/01/15 04:30:23;;;;;;;175.30;46.77;;;5.40;99.90;;;;;;5096716;28;20172;-83
2023/01/15 04:32:49;;;;;;;161.03;44.10;;;5.40;99.90;;;;;;5096237;28;20653;-83
2023/01/15 04:35:16;;;;;;;165.38;45.05;;;5.40;99.90;;;;;;5095097;28;20200;-84
2023/01/15 04:37:41;;;;;;;190.85;41.13;;;5.40;99.90;;;;;;5094790;28;20662;-84
2023/01/15 04:40:08;;;;;;;183.05;44.10;;;5.40;99.90;;;;;;5094882;28;20176;-84
2023/01/15 04:45:18;;;;;;;176.73;42.05;;;5.50;99.90;;;;;;5096422;28;20215;-84
2023/01/15 04:47:44;;;;;;;166.03;39.00;;;5.50;99.90;;;;;;5095908;28;20180;-84
2023/01/15 04:50:10;;;;;;;185.43;43.00;;;5.50;99.90;;;;;;5095876;28;20641;-83
2023/01/15 04:52:36;;;;;;;201.10;42.35;;;5.50;99.90;;;;;;5094496;28;20227;-82
2023/01/15 04:55:03;;;;;;;194.35;44.10;;;5.50;99.90;;;;;;5094324;28;20228;-84
2023/01/15 04:57:29;;;;;;;188.95;45.28;;;5.60;99.90;;;;;;5094258;28;20257;-82
2023/01/15 04:59:54;;;;;;;194.73;42.57;;;5.60;99.90;;;;;;5094813;28;20172;-84
2023/01/15 05:02:20;;;;;;;137.37;40.17;;;5.50;99.90;;;;;;5095604;28;20204;-84
2023/01/15 05:04:46;;;;;;;169.37;39.07;;;5.40;99.90;;;;;;5095949;28;20211;-83
2023/01/15 05:07:11;;;;;;;131.10;41.53;;;5.30;99.90;;;;;;5094238;28;20437;-84
2023/01/15 05:09:37;;;;;;;174.63;45.20;;;5.20;99.90;;;;;;5094396;28;20184;-81
2023/01/15 05:12:03;;;;;;;119.10;40.57;;;5.20;99.90;;;;;;5096238;28;20176;-84
2023/01/15 05:14:29;;;;;;;147.60;44.13;;;5.20;99.90;;;;;;5095605;28;20168;-84
2023/01/15 05:16:55;;;;;;;171.00;48.58;;;5.20;99.90;;;;;;5094055;28;20177;-84
2023/01/15 05:19:21;;;;;;;115.17;35.77;;;5.20;99.90;;;;;;5095424;28;20644;-84
2023/01/15 05:21:46;;;;;;;164.60;49.03;;;5.20;99.90;;;;;;5095335;28;20200;-82
2023/01/15 05:24:15;;;;;;;185.17;47.73;;;5.10;99.90;;;;;;5093802;28;20266;-84
2023/01/15 05:26:41;;;;;;;179.30;49.00;;;5.10;99.90;;;;;;5095152;28;20219;-82
2023/01/15 05:29:09;;;;;;;135.70;40.43;;;5.10;99.90;;;;;;5095225;28;20616;-84
2023/01/15 05:31:35;;;;;;;94.38;32.75;;;5.00;99.90;;;;;;5094945;28;20396;-81
2023/01/15 05:34:01;;;;;;;112.40;33.37;;;5.00;99.90;;;;;;5093738;28;20207;-83
2023/01/15 05:36:29;;;;;;;126.22;35.38;;;5.00;99.90;;;;;;5094903;28;20337;-82
2023/01/15 05:39:00;;;;;;;105.90;34.85;;;5.00;99.90;;;;;;5095040;28;20237;-83
2023/01/15 05:44:12;;;;;;;127.53;34.78;;;5.00;99.90;;;;;;5094632;28;20252;-82
2023/01/15 05:46:39;;;;;;;114.20;35.15;;;5.00;99.90;;;;;;5093499;28;20351;-82
2023/01/15 05:49:08;;;;;;;121.32;35.58;;;5.00;99.90;;;;;;5094903;28;20278;-82
2023/01/15 05:51:35;;;;;;;113.53;39.40;;;4.90;99.90;;;;;;5094607;28;20184;-84
2023/01/15 05:54:02;;;;;;;120.03;37.80;;;4.90;99.90;;;;;;5095808;28;20207;-83
2023/01/15 05:56:27;;;;;;;51.95;20.65;;;4.80;99.90;;;;;;5095971;28;20289;-84
2023/01/15 05:58:53;;;;;;;131.70;38.77;;;4.70;99.90;;;;;;5097995;28;20204;-84
2023/01/15 06:01:20;;;;;;;137.07;39.07;;;4.70;99.90;;;;;;5095235;28;20694;-83
2023/01/15 06:03:47;;;;;;;114.30;38.90;;;4.70;99.90;;;;;;5094344;28;20429;-85
2023/01/15 06:06:15;;;;;;;144.85;41.17;;;4.80;99.90;;;;;;5093133;28;20211;-84
2023/01/15 06:08:41;;;;;;;115.97;36.33;;;4.90;99.90;;;;;;5092903;28;20257;-83
2023/01/15 06:11:07;;;;;;;140.67;41.50;;;4.90;99.90;;;;;;5094047;28;20184;-82
2023/01/15 06:13:33;;;;;;;165.23;44.28;;;4.90;99.90;;;;;;5094159;28;20192;-84
2023/01/15 06:16:00;;;;;;;155.13;45.13;;;4.90;99.90;;;;;;5094343;28;20183;-82
2023/01/15 06:18:25;;;;;;;151.27;50.97;;;4.90;99.90;;;;;;5092821;28;20479;-84
2023/01/15 06:20:51;;;;;;;106.33;39.00;;;4.90;99.90;;;;;;5094359;28;20203;-83
2023/01/15 06:23:18;;;;;;;163.50;46.57;;;5.00;99.90;;;;;;5093991;28;20192;-82
2023/01/15 06:25:44;;;;;;;156.38;45.10;;;4.90;99.90;;;;;;5092759;28;20451;-81
2023/01/15 06:28:12;;;;;;;161.85;45.92;;;4.90;99.90;;;;;;5092801;28;20192;-84
2023/01/15 06:30:38;;;;;;;164.02;50.25;;;5.00;99.90;;;;;;5092668;28;20557;-84
2023/01/15 06:33:06;;;;;;;161.68;45.75;;;5.00;99.90;;;;;;5092609;28;20199;-83
2023/01/15 06:35:32;;;;;;;143.35;46.38;;;5.00;99.90;;;;;;5092852;28;20175;-81
2023/01/15 06:37:58;;;;;;;181.30;48.07;;;4.90;99.90;;;;;;5093931;28;20276;-82
2023/01/15 06:40:25;;;;;;;157.23;49.47;;;5.00;99.90;;;;;;5092905;28;20419;-83
2023/01/15 06:48:25;;;;;;;238.48;57.15;;;5.00;99.90;;;;;;5093732;28;20196;-85
2023/01/15 06:50:52;;;;;;;254.88;59.00;;;5.00;99.90;;;;;;5093876;28;20177;-84
2023/01/15 06:53:18;;;;;;;249.32;55.92;;;5.00;99.90;;;;;;5093630;28;20283;-82
2023/01/15 06:55:44;;;;;;;266.10;55.75;;;5.10;99.90;;;;;;5092287;28;20664;-84
2023/01/15 06:58:10;;;;;;;255.07;58.70;;;5.10;99.90;;;;;;5092497;28;20231;-84
2023/01/15 07:00:35;;;;;;;262.43;59.40;;;5.10;99.90;;;;;;5093739;28;20180;-84
2023/01/15 07:03:04;;;;;;;258.93;60.93;;;5.20;99.90;;;;;;5093621;28;20532;-84
2023/01/15 07:05:29;;;;;;;196.02;51.72;;;5.20;99.90;;;;;;5093502;28;20579;-83
2023/01/15 07:07:57;;;;;;;266.70;60.90;;;5.20;99.90;;;;;;5092279;28;20201;-84
2023/01/15 07:10:23;;;;;;;285.20;66.70;;;5.30;99.90;;;;;;5094022;28;20898;-84
2023/01/15 07:12:48;;;;;;;286.17;67.23;;;5.30;99.90;;;;;;5092182;28;20208;-82
2023/01/15 07:15:14;;;;;;;269.93;64.70;;;5.30;99.90;;;;;;5094034;28;20169;-84
2023/01/15 07:17:40;;;;;;;257.43;71.90;;;5.30;99.90;;;;;;5093519;28;20565;-83
2023/01/15 07:20:07;;;;;;;269.67;69.67;;;5.40;99.90;;;;;;5093928;28;20387;-83
2023/01/15 07:22:32;;;;;;;287.05;74.85;;;5.50;99.90;;;;;;5093964;28;20232;-83
2023/01/15 07:24:58;;;;;;;282.33;76.60;;;5.50;99.90;;;;;;5097947;28;20289;-82
2023/01/15 07:27:24;;;;;;;270.37;73.70;;;5.50;99.90;;;;;;5096088;28;20414;-84
2023/01/15 07:29:50;;;;;;;273.17;79.50;;;5.50;99.90;;;;;;5097813;28;20185;-85
2023/01/15 07:32:17;;;;;;;284.65;78.32;;;5.50;99.90;;;;;;5097277;28;20203;-82
2023/01/15 07:34:42;;;;;;;253.50;72.13;;;5.60;99.90;;;;;;5097607;28;20173;-83
2023/01/15 07:37:08;;;;;;;255.67;73.30;;;5.60;99.90;;;;;;5097322;28;20203;-84
2023/01/15 07:39:34;;;;;;;254.13;70.27;;;5.70;99.90;;;;;;5098200;28;20632;-82
2023/01/15 07:50:15;;;;;;;187.00;61.03;;;5.70;99.90;;;;;;5097805;28;20175;-85
2023/01/15 07:52:41;;;;;;;185.15;65.70;;;5.60;99.90;;;;;;5095680;28;20208;-85
2023/01/15 07:55:08;;;;;;;168.23;62.27;;;5.50;99.90;;;;;;5096997;28;20227;-83
2023/01/15 07:57:36;;;;;;;182.95;65.47;;;5.50;99.90;;;;;;5095636;28;20422;-84
2023/01/15 08:00:03;;;;;;;227.40;70.13;;;5.50;99.90;;;;;;5097252;28;20301;-83
2023/01/15 08:02:29;;;;;;;222.90;68.55;;;5.50;99.90;;;;;;5095409;28;20204;-82
2023/01/15 08:04:55;;;;;;;220.77;70.60;;;5.50;99.90;;;;;;5095485;28;20665;-85
2023/01/15 08:07:20;;;;;;;211.90;67.50;;;5.50;99.90;;;;;;5096602;28;20219;-84
2023/01/15 08:09:46;;;;;;;178.33;62.10;;;5.60;99.90;;;;;;5097216;28;20176;-84
2023/01/15 08:15:15;;;;;;;223.82;66.72;;;5.70;99.90;;;;;;5097021;28;20553;-82
2023/01/15 08:17:46;;;;;;;232.48;71.90;;;5.70;99.90;;;;;;5095186;28;20207;-83
2023/01/15 08:20:19;;;;;;;224.23;72.88;;;5.80;99.90;;;;;;5096981;28;20182;-81
2023/01/15 08:22:45;;;;;;;114.65;47.03;;;5.90;99.90;;;;;;5095131;28;20206;-84
2023/01/15 08:25:14;;;;;;;211.65;72.53;;;5.90;99.90;;;;;;5094962;28;20235;-83
2023/01/15 08:27:41;;;;;;;212.80;75.75;;;5.90;99.90;;;;;;5097190;28;20676;-82
2023/01/15 08:30:10;;;;;;;208.13;73.82;;;5.90;99.90;;;;;;5095353;28;20185;-83
2023/01/15 08:32:36;;;;;;;216.73;77.65;;;5.90;99.90;;;;;;5096155;28;20204;-83
2023/01/15 08:35:02;;;;;;;206.87;74.13;;;6.00;99.90;;;;;;5094879;28;20543;-83
2023/01/15 08:37:28;;;;;;;174.87;64.33;;;6.00;99.90;;;;;;5096090;28;20203;-82
2023/01/15 08:39:53;;;;;;;176.47;61.50;;;6.00;99.90;;;;;;5094982;28;20419;-82
2023/01/15 08:42:19;;;;;;;190.07;68.20;;;6.10;99.90;;;;;;5095968;28;20204;-84
2023/01/15 08:44:46;;;;;;;188.65;66.95;;;6.20;99.90;;;;;;5096361;28;20218;-85
2023/01/15 08:47:12;;;;;;;195.77;67.40;;;6.30;99.90;;;;;;5096001;28;20650;-84
2023/01/15 08:49:38;;;;;;;157.37;62.83;;;6.50;99.90;;;;;;5096123;28;20279;-85
2023/01/15 08:52:04;;;;;;;143.23;56.00;;;6.70;99.90;;;;;;5094542;28;20533;-82
2023/01/15 08:54:29;;;;;;;116.23;56.90;;;6.90;99.90;;;;;;5094227;28;20412;-82
2023/01/15 08:56:55;;;;;;;104.60;49.87;;;7.10;99.90;;;;;;5096176;28;20428;-83
2023/01/15 08:59:21;;;;;;;77.37;40.40;;;7.40;99.90;;;;;;5095636;28;20177;-85
2023/01/15 09:01:47;;;;;;;77.83;40.40;;;7.80;99.90;;;;;;5094461;28;20176;-85
2023/01/15 09:04:15;;;;;;;68.80;41.37;;;8.10;99.90;;;;;;5096540;28;20247;-84
2023/01/15 09:06:41;;;;;;;59.58;35.72;;;8.20;99.90;;;;;;5095626;28;20488;-84
2023/01/15 09:09:07;;;;;;;58.92;35.55;;;8.40;99.90;;;;;;5094202;28;20204;-84
2023/01/15 09:11:33;;;;;;;62.80;35.40;;;8.70;99.90;;;;;;5094120;28;20177;-83
2023/01/15 09:13:58;;;;;;;54.20;32.90;;;8.90;99.90;;;;;;5094001;28;20204;-85
2023/01/15 09:16:26;;;;;;;50.33;31.50;;;9.00;99.90;;;;;;5095452;28;20216;-81
2023/01/15 09:18:52;;;;;;;48.70;32.25;;;9.00;99.90;;;;;;5093924;28;20200;-85
2023/01/15 09:21:19;;;;;;;49.33;29.52;;;9.10;99.90;;;;;;5094049;28;20556;-84
2023/01/15 09:23:45;;;;;;;43.13;29.25;;;9.50;99.90;;;;;;5093753;28;20201;-85
2023/01/15 09:26:33;;;;;;;44.70;29.20;;;9.90;99.90;;;;;;5093938;28;20187;-85
2023/01/15 09:29:00;;;;;;;72.72;43.65;;;10.10;99.90;;;;;;5094984;28;20467;-82
2023/01/15 09:31:26;;;;;;;48.72;30.42;;;10.30;99.90;;;;;;5097607;28;20179;-81
2023/01/15 09:33:52;;;;;;;111.90;62.70;;;10.30;99.90;;;;;;5094163;28;20196;-84
2023/01/15 09:36:22;;;;;;;52.90;36.60;;;10.30;99.90;;;;;;5097218;28;20417;-83
2023/01/15 09:38:48;;;;;;;45.92;28.88;;;10.30;99.90;;;;;;5094988;28;20204;-85
2023/01/15 09:44:36;;;;;;;46.95;30.52;;;10.30;99.90;;;;;;5094939;28;20295;-83
2023/01/15 09:47:14;;;;;;;52.10;32.03;;;10.40;99.90;;;;;;5040238;28;20181;-82
2023/01/15 09:50:01;;;;;;;45.33;29.75;;;10.70;99.90;;;;;;5094678;28;20230;-85
2023/01/15 09:52:45;;;;;;;50.85;31.45;;;11.00;99.90;;;;;;5093427;28;20616;-85
2023/01/15 09:55:19;;;;;;;44.90;28.17;;;11.00;99.90;;;;;;5094747;28;20723;-86
2023/01/15 09:57:52;;;;;;;42.50;27.73;;;11.20;99.90;;;;;;5093302;28;20437;-82
2023/01/15 10:00:22;;;;;;;40.33;27.10;;;11.30;99.90;;;;;;5093269;28;20429;-85
2023/01/15 10:03:04;;;;;;;37.93;27.03;;;11.30;99.90;;;;;;5094450;28;20942;-86
2023/01/15 10:05:51;;;;;;;38.57;26.60;;;11.10;99.90;;;;;;5093315;28;20468;-82
2023/01/15 10:08:25;;;;;;;45.20;26.95;;;10.90;99.90;;;;;;5094432;28;20950;-85
2023/01/15 10:10:58;;;;;;;41.50;27.38;;;10.80;99.90;;;;;;5094250;28;20164;-85
2023/01/15 10:13:37;;;;;;;43.47;28.27;;;10.70;99.90;;;;;;5094110;28;20329;-82
2023/01/15 10:16:04;;;;;;;38.30;26.52;;;10.70;99.90;;;;;;5094377;28;20164;-82
2023/01/15 10:18:29;;;;;;;38.80;27.13;;;10.60;99.90;;;;;;5094115;28;20196;-85
2023/01/15 10:20:58;;;;;;;37.90;25.90;;;10.50;99.90;;;;;;5094266;28;20179;-82
2023/01/15 10:23:27;;;;;;;42.58;25.77;;;10.00;99.90;;;;;;5094078;28;20680;-83
2023/01/15 10:26:17;;;;;;;37.70;26.00;;;9.80;99.90;;;;;;5092712;28;20219;-80
2023/01/15 10:29:00;;;;;;;38.33;24.15;;;9.70;99.90;;;;;;5094287;28;20193;-85
2023/01/15 10:31:47;;;;;;;39.83;26.05;;;9.50;99.90;;;;;;5094245;28;20168;-85
2023/01/15 10:34:18;;;;;;;43.28;27.90;;;9.50;99.90;;;;;;5094798;28;20187;-84
2023/01/15 10:36:56;;;;;;;42.72;28.65;;;9.50;99.90;;;;;;5094660;28;20219;-83
2023/01/15 10:39:38;;;;;;;42.22;29.77;;;9.40;99.90;;;;;;5094399;28;20180;-84
2023/01/15 10:42:11;;;;;;;46.22;29.20;;;9.30;99.90;;;;;;5094140;28;20165;-85
2023/01/15 10:44:50;;;;;;;44.92;29.02;;;9.30;99.90;;;;;;5092879;28;20665;-84
2023/01/15 10:47:20;;;;;;;43.55;26.70;;;9.40;99.90;;;;;;5092599;28;20200;-84
2023/01/15 10:49:48;;;;;;;46.40;28.25;;;9.50;99.90;;;;;;5094278;28;20263;-84
2023/01/15 10:52:36;;;;;;;46.35;30.35;;;9.40;99.90;;;;;;5093735;28;20200;-82
2023/01/15 10:55:36;;;;;;;47.33;29.65;;;9.40;99.90;;;;;;5093602;28;20625;-83
2023/01/15 10:58:32;;;;;;;47.92;29.30;;;9.40;99.90;;;;;;5095736;28;20204;-84
2023/01/15 11:01:04;;;;;;;42.80;27.27;;;9.40;99.90;;;;;;5098171;28;20173;-82
2023/01/15 11:03:38;;;;;;;47.00;30.63;;;9.40;99.90;;;;;;5096426;28;20188;-82
2023/01/15 11:06:11;;;;;;;53.72;33.67;;;9.50;99.90;;;;;;5097943;28;20206;-82
2023/01/15 11:08:39;;;;;;;48.60;30.70;;;9.50;99.90;;;;;;5096613;28;20204;-83
2023/01/15 11:19:35;;;;;;;52.45;32.40;;;9.50;99.90;;;;;;5096493;28;20172;-82
2023/01/15 11:20:34;;;;;;;45.65;28.95;;;9.40;99.90;;;;;;5098631;28;20195;-84
2023/01/15 11:23:33;;;;;;;46.03;27.65;;;9.50;99.90;;;;;;5096362;28;20295;-81
2023/01/15 11:25:59;;;;;;;48.13;28.70;;;9.60;99.90;;;;;;5085247;28;20228;-82
2023/01/15 11:28:41;;;;;;;43.30;29.23;;;9.70;99.90;;;;;;5097393;28;20650;-82
2023/01/15 11:31:09;;;;;;;47.97;30.75;;;9.70;99.90;;;;;;5097500;28;20183;-82
2023/01/15 11:33:35;;;;;;;46.10;27.73;;;9.70;99.90;;;;;;5097220;28;20180;-81
2023/01/15 11:36:04;;;;;;;45.33;30.80;;;9.70;99.90;;;;;;5096110;28;20652;-83
2023/01/15 11:38:43;;;;;;;44.28;22.95;;;9.70;99.90;;;;;;5097170;28;20661;-84
2023/01/15 11:41:21;;;;;;;46.60;28.83;;;9.80;99.90;;;;;;5097334;28;20165;-81
2023/01/15 11:52:14;;;;;;;40.63;26.90;;;10.20;99.90;;;;;;5097402;28;20167;-82
2023/01/15 11:54:43;;;;;;;45.83;28.75;;;10.10;99.90;;;;;;5097846;28;20627;-81
2023/01/15 11:57:09;;;;;;;44.58;26.08;;;10.00;99.90;;;;;;5095665;28;20212;-80
2023/01/15 11:59:36;;;;;;;46.78;24.88;;;10.00;99.90;;;;;;5097747;28;20270;-84
2023/01/15 12:02:20;;;;;;;45.38;26.42;;;10.00;99.90;;;;;;5097280;28;20183;-82
2023/01/15 12:04:54;;;;;;;45.30;28.48;;;10.10;99.90;;;;;;5097054;28;20660;-81
2023/01/15 12:07:23;;;;;;;45.53;25.40;;;10.30;99.90;;;;;;5096821;28;20567;-82
2023/01/15 12:10:12;;;;;;;45.10;27.75;;;10.30;99.90;;;;;;5096473;28;20173;-82
2023/01/15 12:12:59;;;;;;;52.25;31.27;;;10.30;99.90;;;;;;5096607;28;20193;-85
2023/01/15 12:16:14;;;;;;;41.72;26.05;;;10.40;99.90;;;;;;5097265;28;20173;-82
2023/01/15 12:19:11;;;;;;;43.45;27.33;;;10.40;99.90;;;;;;5073474;28;20295;-84
2023/01/15 12:21:56;;;;;;;45.45;26.17;;;10.20;99.90;;;;;;5096656;28;20176;-82
2023/01/15 12:24:36;;;;;;;44.78;27.80;;;10.10;99.90;;;;;;5102121;28;20628;-82
2023/01/15 12:27:05;;;;;;;40.53;24.20;;;10.10;99.90;;;;;;5107701;28;20172;-82
2023/01/15 12:29:41;;;;;;;44.55;25.80;;;10.10;99.90;;;;;;5105538;28;20177;-81
2023/01/15 12:32:16;;;;;;;40.33;25.02;;;10.10;99.90;;;;;;5099786;28;20202;-85
2023/01/15 12:35:05;;;;;;;35.08;18.92;;;10.00;99.90;;;;;;5111414;28;20176;-88
2023/01/15 12:37:56;;;;;;;47.72;27.95;;;10.00;99.90;;;;;;5112647;28;20208;-82
2023/01/15 12:40:22;;;;;;;46.13;26.33;;;10.00;99.90;;;;;;5108112;28;20533;-85
2023/01/15 12:45:50;;;;;;;53.70;30.30;;;10.10;99.90;;;;;;5104394;28;20227;-83
2023/01/15 12:48:42;;;;;;;50.00;29.10;;;10.10;99.90;;;;;;5108514;28;20196;-85
2023/01/15 12:51:16;;;;;;;37.20;21.75;;;10.00;99.90;;;;;;5110829;28;20180;-83
2023/01/15 12:53:51;;;;;;;38.50;20.75;;;10.10;99.90;;;;;;5106843;28;20651;-83
2023/01/15 12:56:27;;;;;;;44.60;30.05;;;10.10;99.90;;;;;;5095644;28;20219;-83
2023/01/15 12:59:16;;;;;;;45.85;28.52;;;10.10;99.90;;;;;;5099962;28;20195;-84
2023/01/15 13:02:12;;;;;;;45.03;27.52;;;10.00;99.90;;;;;;5105860;28;20184;-82
2023/01/15 13:04:37;;;;;;;48.80;28.65;;;10.00;99.90;;;;;;5103157;28;20212;-85
2023/01/15 13:07:25;;;;;;;53.10;29.67;;;10.00;99.90;;;;;;5105986;28;20529;-83
2023/01/15 13:10:15;;;;;;;51.83;31.27;;;10.00;99.90;;;;;;5100942;28;20172;-83
2023/01/15 13:12:40;;;;;;;53.08;32.58;;;10.00;99.90;;;;;;5106744;28;20253;-84
2023/01/15 13:15:11;;;;;;;47.40;31.50;;;10.00;99.90;;;;;;5102773;28;20173;-85
2023/01/15 13:17:59;;;;;;;50.35;32.17;;;9.90;99.90;;;;;;5108341;28;20692;-83
2023/01/15 13:20:50;;;;;;;46.83;29.40;;;9.90;99.90;;;;;;5109861;28;20183;-85
2023/01/15 13:23:44;;;;;;;56.10;30.50;;;9.90;99.90;;;;;;5110898;28;20196;-85
2023/01/15 13:26:35;;;;;;;54.20;32.80;;;9.80;99.90;;;;;;5112110;28;20227;-84
2023/01/15 13:29:09;;;;;;;54.45;31.73;;;9.80;99.90;;;;;;5112216;28;20674;-85
2023/01/15 13:31:52;;;;;;;49.92;28.17;;;9.80;99.90;;;;;;5112061;28;20160;-85
2023/01/15 13:34:25;;;;;;;55.45;33.90;;;9.80;99.90;;;;;;5113084;28;20257;-83
2023/01/15 13:36:53;;;;;;;50.17;32.40;;;9.90;99.90;;;;;;5112816;28;20703;-85